Terminal Aerodrome Forecast
Issued by NWS

Home | Current Version | Previous Version | Text Only | Print | Product List | Glossary Off
Versions: 1 2 3 4 5 6 7 8 9 10 11 12 13 14 15 16

000
FTUS43 KPAH 020500
TAFCGI
TAF
KCGI 020520Z 0206/0306 18008KT P6SM BKN250
     FM020800 19005KT P6SM VCTS BKN050CB
      TEMPO 0208/0212 3SM TSRA BR OVC025CB
     FM021500 22006KT P6SM BKN030
     FM022000 25005KT P6SM SCT040=

USA.gov is the U.S. government's official web portal to all federal, state and local government web resources and services.